Time;durP1;ratioP1;P1;durP2;ratioP2;P2;SDS_P1;SDS_P2;PMS_P1;PMS_P2;Temp;Humidity;BMP_temperature;BMP_pressure;BME280_temperature;BME280_humidity;BME280_pressure;Samples;Min_cycle;Max_cycle;Signal;HPM_P1;HPM_P2
2022/05/30 00:01:22;;;;;;;3.60;3.20;;;7.60;99.90;;;;;;4969790;28;20234;-92
2022/05/30 00:03:50;;;;;;;7.70;2.60;;;7.50;99.90;;;;;;4993953;28;20184;-91
2022/05/30 00:06:20;;;;;;;3.73;3.10;;;7.50;99.90;;;;;;4994657;28;20589;-92
2022/05/30 00:08:45;;;;;;;2.40;2.30;;;7.50;99.90;;;;;;4977120;28;20952;-92
2022/05/30 00:11:15;;;;;;;3.30;2.93;;;7.50;99.90;;;;;;4989515;28;20454;-91
2022/05/30 00:13:42;;;;;;;4.00;2.90;;;7.50;99.90;;;;;;4993307;28;20487;-91
2022/05/30 00:16:11;;;;;;;3.20;2.90;;;7.50;99.90;;;;;;4991182;28;20850;-90
2022/05/30 00:18:45;;;;;;;3.30;3.00;;;7.50;99.90;;;;;;4985877;28;20451;-91
2022/05/30 00:21:18;;;;;;;3.73;2.57;;;7.40;99.90;;;;;;4982496;28;20861;-91
2022/05/30 00:23:53;;;;;;;2.50;2.40;;;7.20;99.90;;;;;;4980998;28;20545;-91
2022/05/30 00:26:20;;;;;;;3.00;2.80;;;7.10;99.90;;;;;;4980821;28;20956;-92
2022/05/30 00:28:46;;;;;;;2.60;2.40;;;7.00;99.90;;;;;;4983663;28;20426;-91
2022/05/30 00:31:20;;;;;;;8.00;3.33;;;7.00;99.90;;;;;;4981089;28;20811;-91
2022/05/30 00:33:48;;;;;;;2.37;2.20;;;7.00;99.90;;;;;;5004823;28;20230;-91
2022/05/30 00:36:34;;;;;;;2.90;2.70;;;6.90;99.90;;;;;;4992302;28;20460;-91
2022/05/30 00:39:12;;;;;;;2.80;2.60;;;6.90;99.90;;;;;;4990526;28;20445;-91
2022/05/30 00:41:38;;;;;;;3.00;2.80;;;6.90;99.90;;;;;;4978915;28;20972;-92
2022/05/30 00:44:08;;;;;;;3.33;3.03;;;6.80;99.90;;;;;;4962270;28;20444;-92
2022/05/30 00:46:36;;;;;;;2.80;2.60;;;6.70;99.90;;;;;;4982703;28;20547;-90
2022/05/30 00:49:34;;;;;;;3.27;3.07;;;6.70;99.90;;;;;;4979889;28;20537;-91
2022/05/30 00:52:14;;;;;;;2.67;2.53;;;6.60;99.90;;;;;;4992127;28;20527;-92
2022/05/30 00:54:58;;;;;;;;;;;;;;;;;;;;;
2022/05/30 00:57:29;;;;;;;2.50;2.37;;;6.50;99.90;;;;;;4973512;28;20461;-92
2022/05/30 00:59:58;;;;;;;2.70;2.50;;;6.40;99.90;;;;;;4961426;28;20452;-91
2022/05/30 01:02:26;;;;;;;2.77;2.57;;;6.30;99.90;;;;;;4979245;28;20449;-91
2022/05/30 01:07:42;;;;;;;3.20;3.00;;;6.30;99.90;;;;;;4964777;28;20491;-92
2022/05/30 01:10:11;;;;;;;3.33;3.00;;;6.30;99.90;;;;;;4977867;28;20460;-92
2022/05/30 01:12:44;;;;;;;3.50;3.20;;;6.30;99.90;;;;;;4978150;28;20490;-92
2022/05/30 01:15:25;;;;;;;3.40;3.20;;;6.50;99.90;;;;;;4960451;28;20986;-92
2022/05/30 01:18:39;;;;;;;3.23;2.90;;;6.60;99.90;;;;;;4969982;28;20996;-91
2022/05/30 01:21:40;;;;;;;3.10;2.80;;;6.50;99.90;;;;;;4979475;28;20481;-92
2022/05/30 01:24:18;;;;;;;3.83;3.53;;;6.10;99.90;;;;;;4961332;28;20504;-92
2022/05/30 01:27:33;;;;;;;3.23;3.00;;;6.00;99.90;;;;;;4985871;28;20563;-92
2022/05/30 01:30:08;;;;;;;5.90;3.90;;;5.90;99.90;;;;;;4924234;28;20483;-91
2022/05/30 01:32:33;;;;;;;3.70;3.40;;;5.70;99.90;;;;;;4963829;28;20488;-92
2022/05/30 01:34:59;;;;;;;3.57;3.37;;;5.90;99.90;;;;;;4979497;28;20459;-92
2022/05/30 01:37:27;;;;;;;3.33;3.10;;;6.10;99.90;;;;;;4967256;28;20648;-92
2022/05/30 01:39:53;;;;;;;3.70;3.40;;;6.20;99.90;;;;;;4979323;28;20827;-91
2022/05/30 01:42:19;;;;;;;4.07;3.77;;;6.30;99.90;;;;;;4963650;28;20453;-92
2022/05/30 01:44:49;;;;;;;7.03;4.87;;;6.10;99.90;;;;;;4978064;28;20228;-92
2022/05/30 01:47:34;;;;;;;4.43;4.13;;;6.10;99.90;;;;;;4964426;28;20193;-91
2022/05/30 01:50:13;;;;;;;4.40;4.00;;;6.20;99.90;;;;;;4980685;28;20531;-93
2022/05/30 01:52:41;;;;;;;4.03;3.73;;;6.40;99.90;;;;;;4981243;28;20896;-91
2022/05/30 01:55:10;;;;;;;4.40;3.47;;;6.60;99.90;;;;;;4975603;28;20958;-91
2022/05/30 01:57:37;;;;;;;3.50;3.20;;;6.50;99.90;;;;;;4982496;28;20799;-91
2022/05/30 02:00:05;;;;;;;3.20;2.90;;;6.50;99.90;;;;;;4966673;28;20790;-91
2022/05/30 02:02:31;;;;;;;3.63;3.43;;;6.40;99.90;;;;;;4974593;28;20534;-90
2022/05/30 02:05:03;;;;;;;3.57;3.37;;;6.20;99.90;;;;;;4964263;28;20947;-91
2022/05/30 02:07:40;;;;;;;4.93;3.27;;;6.10;99.90;;;;;;4963005;28;20657;-91
2022/05/30 02:10:09;;;;;;;3.40;3.20;;;6.00;99.90;;;;;;4967371;28;20436;-91
2022/05/30 02:12:35;;;;;;;3.17;2.87;;;5.90;99.90;;;;;;4977378;28;21060;-90
2022/05/30 02:15:03;;;;;;;3.20;3.00;;;5.90;99.90;;;;;;4958847;28;20459;-90
2022/05/30 02:17:32;;;;;;;4.60;4.20;;;5.80;99.90;;;;;;4953388;28;20213;-92
2022/05/30 02:19:58;;;;;;;3.60;2.90;;;5.80;99.90;;;;;;4966913;28;21211;-90
2022/05/30 02:22:32;;;;;;;2.77;2.63;;;5.70;99.90;;;;;;4965776;28;20473;-89
2022/05/30 02:26:02;;;;;;;2.60;2.40;;;5.60;99.90;;;;;;4962468;28;21162;-90
2022/05/30 02:28:59;;;;;;;3.30;3.00;;;5.60;99.90;;;;;;4965879;28;20449;-90
2022/05/30 02:31:28;;;;;;;3.40;2.63;;;5.40;99.90;;;;;;4964689;28;20453;-91
2022/05/30 02:36:44;;;;;;;3.07;2.77;;;5.40;99.90;;;;;;4971531;28;20205;-91
2022/05/30 02:39:34;;;;;;;2.10;2.00;;;5.40;99.90;;;;;;4965094;28;20453;-90
2022/05/30 02:42:16;;;;;;;2.90;2.70;;;5.30;99.90;;;;;;4962616;28;20504;-91
2022/05/30 02:44:42;;;;;;;2.90;2.70;;;5.40;99.90;;;;;;4979632;28;20564;-90
2022/05/30 02:47:07;;;;;;;2.73;2.53;;;5.50;99.90;;;;;;4964083;28;20318;-90
2022/05/30 02:49:33;;;;;;;3.43;3.13;;;5.50;99.90;;;;;;4972575;28;20192;-90
2022/05/30 02:52:00;;;;;;;3.40;3.20;;;5.40;99.90;;;;;;4988176;28;20234;-91
2022/05/30 02:54:29;;;;;;;2.30;2.20;;;5.50;99.90;;;;;;4964715;28;20183;-91
2022/05/30 02:57:02;;;;;;;3.20;2.70;;;5.50;99.90;;;;;;4957423;28;20462;-91
2022/05/30 02:59:31;;;;;;;2.93;2.73;;;5.60;99.90;;;;;;4960595;28;21171;-91
2022/05/30 03:02:01;;;;;;;3.20;3.00;;;5.60;99.90;;;;;;4959436;28;20819;-91
2022/05/30 03:04:32;;;;;;;3.37;3.07;;;5.60;99.90;;;;;;4980901;28;20453;-90
2022/05/30 03:07:05;;;;;;;2.80;2.33;;;5.60;99.90;;;;;;4974128;28;20477;-92
2022/05/30 03:09:32;;;;;;;3.13;2.80;;;5.70;99.90;;;;;;4957578;28;20438;-91
2022/05/30 03:12:00;;;;;;;3.67;3.27;;;5.70;99.90;;;;;;4979943;28;20478;-91
2022/05/30 03:14:28;;;;;;;4.13;3.00;;;5.70;99.90;;;;;;4964022;28;20441;-90
2022/05/30 03:16:57;;;;;;;3.83;3.37;;;5.60;99.90;;;;;;4976664;28;20457;-91
2022/05/30 03:19:25;;;;;;;3.30;3.10;;;5.70;99.90;;;;;;4959972;28;20494;-89
2022/05/30 03:21:50;;;;;;;2.90;2.70;;;5.60;99.90;;;;;;4963315;28;21091;-90
2022/05/30 03:24:16;;;;;;;2.90;2.70;;;5.70;99.90;;;;;;4971503;28;20183;-91
2022/05/30 03:26:42;;;;;;;3.20;2.77;;;5.70;99.90;;;;;;4976171;28;20194;-89
2022/05/30 03:29:07;;;;;;;3.67;3.00;;;5.60;99.90;;;;;;4984209;28;20218;-91
2022/05/30 03:31:48;;;;;;;5.70;3.50;;;5.70;99.90;;;;;;4969050;28;20198;-91
2022/05/30 03:34:23;;;;;;;3.70;3.40;;;5.70;99.90;;;;;;4977454;28;20519;-93
2022/05/30 03:36:49;;;;;;;3.53;2.90;;;5.60;99.90;;;;;;4995509;28;20459;-93
2022/05/30 03:39:15;;;;;;;4.10;3.70;;;5.60;99.90;;;;;;5009469;28;20464;-93
2022/05/30 03:41:45;;;;;;;3.80;3.50;;;5.70;99.90;;;;;;4993426;28;20446;-93
2022/05/30 03:44:13;;;;;;;3.40;3.10;;;5.70;99.90;;;;;;4995657;28;20458;-93
2022/05/30 03:47:02;;;;;;;3.70;3.40;;;5.70;99.90;;;;;;4985988;28;20563;-94
2022/05/30 03:49:41;;;;;;;7.20;6.50;;;5.60;99.90;;;;;;4970866;28;20451;-93
2022/05/30 03:52:07;;;;;;;4.00;3.70;;;5.70;99.90;;;;;;4961433;28;20543;-91
2022/05/30 03:54:33;;;;;;;4.50;3.80;;;5.70;99.90;;;;;;4974885;28;20512;-92
2022/05/30 03:56:59;;;;;;;3.93;3.63;;;5.80;99.90;;;;;;4968597;28;20968;-92
2022/05/30 03:59:25;;;;;;;3.50;3.20;;;5.70;99.90;;;;;;4982421;28;20187;-92
2022/05/30 04:02:31;;;;;;;3.30;3.00;;;5.70;99.90;;;;;;4980797;28;20585;-93
2022/05/30 04:04:59;;;;;;;4.13;3.83;;;5.70;99.90;;;;;;4973770;28;20204;-93
2022/05/30 04:07:25;;;;;;;3.70;3.40;;;5.70;99.90;;;;;;4978077;28;20449;-92
2022/05/30 04:09:52;;;;;;;4.30;3.90;;;5.70;99.90;;;;;;4962699;28;20500;-91
2022/05/30 04:12:22;;;;;;;3.73;3.50;;;5.60;99.90;;;;;;4987076;28;20305;-91
2022/05/30 04:14:56;;;;;;;3.57;3.33;;;5.50;99.90;;;;;;4964308;28;20571;-91
2022/05/30 04:17:23;;;;;;;4.20;3.90;;;5.50;99.90;;;;;;4945051;28;20995;-92
2022/05/30 04:19:52;;;;;;;4.50;3.80;;;5.40;99.90;;;;;;4965104;28;20453;-92
2022/05/30 04:22:20;;;;;;;3.63;3.43;;;5.50;99.90;;;;;;4976691;28;20444;-92
2022/05/30 04:24:55;;;;;;;3.73;3.43;;;5.50;99.90;;;;;;4982458;28;20508;-90
2022/05/30 04:27:21;;;;;;;3.77;3.47;;;5.50;99.90;;;;;;4987687;28;20439;-90
2022/05/30 04:29:46;;;;;;;4.10;3.80;;;5.50;99.90;;;;;;4978052;28;20883;-91
2022/05/30 04:32:12;;;;;;;3.90;3.57;;;5.50;99.90;;;;;;4992409;28;20211;-87
2022/05/30 04:34:38;;;;;;;4.53;4.13;;;5.60;99.90;;;;;;4962338;28;20312;-86
2022/05/30 04:37:04;;;;;;;3.83;3.53;;;5.70;99.90;;;;;;4979683;28;20285;-87
2022/05/30 04:39:30;;;;;;;4.37;3.63;;;5.80;99.90;;;;;;5000896;28;20533;-88
2022/05/30 04:41:58;;;;;;;4.00;3.63;;;6.00;99.90;;;;;;5002887;28;20518;-87
2022/05/30 04:44:27;;;;;;;4.17;3.87;;;6.00;99.90;;;;;;4986139;28;20545;-87
2022/05/30 04:46:56;;;;;;;4.43;4.03;;;5.90;99.90;;;;;;4982309;28;21853;-87
2022/05/30 04:49:23;;;;;;;4.60;3.43;;;5.80;99.90;;;;;;4986755;28;20804;-87
2022/05/30 04:51:49;;;;;;;4.40;4.00;;;5.90;99.90;;;;;;5001500;28;20516;-87
2022/05/30 04:54:16;;;;;;;4.00;3.70;;;5.90;99.90;;;;;;4999921;28;20438;-86
2022/05/30 04:56:45;;;;;;;4.37;3.67;;;6.00;99.90;;;;;;4980984;28;20542;-86
2022/05/30 04:59:13;;;;;;;4.10;3.80;;;6.00;99.90;;;;;;4990315;28;20495;-86
2022/05/30 05:01:39;;;;;;;3.90;3.60;;;6.10;99.90;;;;;;4981015;28;20482;-88
2022/05/30 05:04:11;;;;;;;3.73;3.43;;;6.30;99.90;;;;;;4996878;28;20440;-86
2022/05/30 05:07:00;;;;;;;13.03;11.83;;;6.30;99.90;;;;;;4978838;28;20453;-90
2022/05/30 05:09:46;;;;;;;4.60;4.30;;;6.50;99.90;;;;;;5000260;28;20459;-89
2022/05/30 05:12:12;;;;;;;4.03;3.63;;;6.60;99.90;;;;;;4978237;28;20501;-89
2022/05/30 05:14:42;;;;;;;4.30;3.40;;;6.50;99.90;;;;;;4977061;28;21336;-88
2022/05/30 05:17:09;;;;;;;4.40;4.10;;;6.50;99.90;;;;;;4978485;28;20199;-89
2022/05/30 05:19:38;;;;;;;5.33;4.20;;;6.50;99.90;;;;;;4984719;28;20461;-91
2022/05/30 05:22:05;;;;;;;4.73;4.27;;;6.50;99.90;;;;;;4986685;28;20428;-88
2022/05/30 05:24:34;;;;;;;4.77;4.30;;;6.50;99.90;;;;;;4999089;28;20461;-88
2022/05/30 05:27:00;;;;;;;4.43;3.80;;;6.50;99.90;;;;;;4978938;28;20849;-89
2022/05/30 05:29:26;;;;;;;4.17;3.83;;;6.50;99.90;;;;;;4997909;28;20861;-89
2022/05/30 05:31:57;;;;;;;4.40;4.10;;;6.60;99.90;;;;;;4980137;28;20467;-87
2022/05/30 05:34:23;;;;;;;4.30;4.00;;;6.70;99.90;;;;;;4972532;28;20179;-87
2022/05/30 05:36:49;;;;;;;4.43;3.97;;;6.80;99.90;;;;;;4974490;28;20794;-88
2022/05/30 05:39:30;;;;;;;4.37;4.00;;;7.00;99.90;;;;;;4985419;28;20483;-90
2022/05/30 05:42:01;;;;;;;6.00;4.10;;;7.00;99.90;;;;;;4982545;28;20468;-89
2022/05/30 05:44:31;;;;;;;4.10;3.80;;;7.00;99.90;;;;;;4986622;28;20448;-90
2022/05/30 05:46:59;;;;;;;5.30;4.30;;;7.10;99.90;;;;;;4978174;28;20440;-89
2022/05/30 05:49:25;;;;;;;8.80;4.60;;;7.20;99.90;;;;;;4985706;28;20516;-91
2022/05/30 07:08:46;;;;;;;;;;;;;;;;;;;;;
2022/05/30 07:11:18;;;;;;;4.60;4.20;;;10.20;99.90;;;;;;4993800;28;20622;-89
2022/05/30 07:13:57;;;;;;;;;;;;;;;;;;;;;
2022/05/30 07:16:25;;;;;;;8.50;7.70;;;10.40;99.90;;;;;;5009670;28;20979;-92
2022/05/30 07:18:53;;;;;;;4.73;3.80;;;10.60;99.90;;;;;;5002182;28;20538;-91
2022/05/30 07:21:25;;;;;;;3.40;3.10;;;10.70;99.90;;;;;;5005457;28;21053;-90
2022/05/30 07:23:54;;;;;;;3.17;2.97;;;10.90;99.90;;;;;;5008338;28;20440;-89
2022/05/30 07:26:24;;;;;;;3.57;2.43;;;11.10;99.90;;;;;;4996193;28;20448;-92
2022/05/30 07:28:52;;;;;;;3.77;3.47;;;11.30;99.90;;;;;;5010578;28;21020;-93
2022/05/30 07:31:26;;;;;;;3.30;3.10;;;11.50;99.90;;;;;;5003385;28;20451;-91
2022/05/30 07:33:52;;;;;;;2.83;2.63;;;11.50;99.90;;;;;;5016614;28;20479;-91
2022/05/30 07:36:24;;;;;;;2.67;2.47;;;11.70;99.90;;;;;;5003893;28;21125;-88
2022/05/30 07:38:50;;;;;;;3.13;2.50;;;12.00;99.90;;;;;;5000212;28;20192;-88
2022/05/30 07:41:17;;;;;;;4.53;2.70;;;12.20;99.90;;;;;;5003060;28;20525;-88
2022/05/30 07:43:44;;;;;;;2.80;2.27;;;12.40;99.90;;;;;;5001727;28;20493;-88
2022/05/30 07:46:12;;;;;;;5.53;2.90;;;12.50;99.90;;;;;;4999896;28;20447;-88
2022/05/30 07:48:41;;;;;;;2.70;2.50;;;12.70;99.90;;;;;;5003113;28;20498;-89
2022/05/30 07:51:10;;;;;;;3.23;3.03;;;12.80;99.90;;;;;;5003634;28;20530;-88
2022/05/30 07:53:40;;;;;;;5.00;2.97;;;12.90;99.90;;;;;;5000049;28;21022;-89
2022/05/30 07:56:12;;;;;;;2.90;2.50;;;12.90;99.90;;;;;;5003546;28;20444;-89
2022/05/30 07:58:38;;;;;;;3.73;2.70;;;13.00;99.90;;;;;;5003718;28;20432;-88
2022/05/30 08:01:05;;;;;;;3.43;2.50;;;13.00;99.90;;;;;;5002446;28;20937;-89
2022/05/30 08:03:33;;;;;;;4.20;2.20;;;12.90;99.90;;;;;;5002610;28;20196;-90
2022/05/30 08:06:15;;;;;;;2.70;2.50;;;13.00;99.90;;;;;;5006734;28;20440;-89
2022/05/30 08:08:42;;;;;;;1.87;1.73;;;13.10;99.50;;;;;;5004916;28;20992;-90
2022/05/30 08:11:07;;;;;;;2.57;2.10;;;13.20;97.60;;;;;;5002548;28;21475;-89
2022/05/30 08:13:34;;;;;;;1.77;1.63;;;13.40;99.90;;;;;;5003924;28;20495;-90
2022/05/30 08:16:02;;;;;;;1.73;1.40;;;13.60;98.10;;;;;;5006435;28;20535;-89
2022/05/30 08:18:29;;;;;;;4.30;1.80;;;13.70;97.00;;;;;;5007767;28;20527;-89
2022/05/30 08:20:57;;;;;;;3.60;2.00;;;13.80;96.70;;;;;;4997328;28;20478;-87
2022/05/30 08:23:23;;;;;;;3.47;2.20;;;13.80;97.60;;;;;;5019748;28;20509;-88
2022/05/30 08:25:53;;;;;;;3.80;2.10;;;14.00;96.70;;;;;;5002174;28;20436;-89
2022/05/30 08:28:21;;;;;;;3.23;2.20;;;14.00;96.00;;;;;;5004604;28;20459;-88
2022/05/30 08:30:47;;;;;;;3.80;1.93;;;14.10;98.00;;;;;;5002713;28;20444;-89
2022/05/30 08:33:21;;;;;;;3.67;1.70;;;14.30;96.60;;;;;;5000184;28;20510;-88
2022/05/30 08:36:10;;;;;;;2.90;1.97;;;14.50;94.50;;;;;;4999694;28;20174;-88
2022/05/30 08:38:42;;;;;;;3.27;2.07;;;14.40;95.20;;;;;;4998708;28;20439;-88
2022/05/30 08:44:40;;;;;;;3.63;2.10;;;14.30;95.50;;;;;;5005498;28;20446;-88
2022/05/30 08:47:22;;;;;;;3.77;2.30;;;14.40;94.70;;;;;;4999141;28;20442;-88
2022/05/30 08:49:52;;;;;;;2.60;1.97;;;14.60;93.80;;;;;;4999190;28;20436;-88
2022/05/30 08:52:32;;;;;;;2.43;2.03;;;14.60;94.50;;;;;;5000602;28;20467;-90
2022/05/30 08:55:19;;;;;;;3.53;1.90;;;14.60;95.60;;;;;;4999700;28;20435;-89
2022/05/30 08:57:53;;;;;;;3.27;1.90;;;15.00;95.00;;;;;;4992937;28;20431;-90
2022/05/30 09:00:34;;;;;;;2.77;1.60;;;15.10;93.50;;;;;;5000227;28;20448;-88
2022/05/30 09:03:18;;;;;;;4.03;2.97;;;15.20;93.20;;;;;;5001684;28;20478;-90
2022/05/30 09:05:52;;;;;;;2.20;2.00;;;15.10;94.50;;;;;;5014596;28;20432;-88
2022/05/30 09:08:36;;;;;;;1.60;1.50;;;14.90;91.70;;;;;;4996997;28;20465;-90
2022/05/30 09:11:07;;;;;;;2.67;1.50;;;15.20;90.70;;;;;;5001160;28;20458;-90
2022/05/30 09:13:45;;;;;;;2.70;1.40;;;15.40;90.00;;;;;;5004206;28;20829;-90
2022/05/30 09:16:21;;;;;;;2.13;1.77;;;15.80;91.00;;;;;;5001229;28;20641;-88
2022/05/30 09:18:52;;;;;;;1.90;1.80;;;16.10;93.20;;;;;;5014656;28;20862;-90
2022/05/30 09:21:22;;;;;;;1.57;1.47;;;16.30;83.10;;;;;;5002318;28;20783;-90
2022/05/30 09:23:58;;;;;;;4.23;2.00;;;16.10;88.70;;;;;;5001535;28;20953;-90
2022/05/30 09:26:38;;;;;;;1.73;1.63;;;16.20;90.00;;;;;;5000455;28;20447;-88
2022/05/30 09:29:12;;;;;;;2.80;1.60;;;16.30;86.90;;;;;;5000318;28;21447;-88
2022/05/30 09:31:47;;;;;;;1.40;1.30;;;16.40;84.00;;;;;;4995181;28;20540;-89
2022/05/30 09:34:53;;;;;;;3.20;1.97;;;16.40;80.90;;;;;;4998856;28;20470;-89
2022/05/30 09:37:37;;;;;;;2.50;1.40;;;16.60;89.90;;;;;;4998715;28;20457;-88
2022/05/30 09:40:06;;;;;;;3.27;1.20;;;17.00;87.90;;;;;;5001442;28;20523;-89
2022/05/30 09:42:52;;;;;;;2.43;1.47;;;17.30;82.20;;;;;;4999433;28;20464;-89
2022/05/30 09:45:37;;;;;;;2.37;1.30;;;17.40;84.90;;;;;;5001899;28;20424;-89
2022/05/30 09:48:24;;;;;;;3.30;1.60;;;17.40;82.70;;;;;;5029659;28;20434;-89
2022/05/30 09:51:08;;;;;;;;;;;;;;;;;;;;;
2022/05/30 09:53:50;;;;;;;1.93;1.40;;;17.40;74.50;;;;;;5000565;28;20511;-92
2022/05/30 09:56:26;;;;;;;1.90;1.80;;;16.70;73.30;;;;;;5004940;28;20424;-87
2022/05/30 09:58:57;;;;;;;3.53;1.50;;;16.80;75.00;;;;;;4987382;28;20582;-88
2022/05/30 10:01:30;;;;;;;3.80;1.50;;;17.00;73.70;;;;;;4983800;28;20448;-88
2022/05/30 10:04:19;;;;;;;3.07;1.60;;;17.30;70.80;;;;;;4986178;28;20506;-88
2022/05/30 10:07:17;;;;;;;2.10;1.40;;;17.30;70.70;;;;;;5006356;28;20714;-88
2022/05/30 10:10:10;;;;;;;2.00;1.73;;;17.60;69.90;;;;;;4983748;28;21085;-90
2022/05/30 10:12:39;;;;;;;2.00;1.70;;;18.20;77.40;;;;;;4999202;28;20473;-89
2022/05/30 10:15:23;;;;;;;1.80;1.70;;;18.90;81.80;;;;;;4999807;28;21320;-88
2022/05/30 10:17:51;;;;;;;1.50;1.40;;;18.20;77.20;;;;;;4979800;28;20457;-90
2022/05/30 10:20:30;;;;;;;1.80;1.30;;;18.60;80.60;;;;;;4992082;28;20955;-89
2022/05/30 10:28:56;;;;;;;1.67;1.47;;;18.80;75.00;;;;;;4991339;28;20466;-89
2022/05/30 10:31:46;;;;;;;2.20;1.37;;;18.40;74.20;;;;;;4990712;28;21013;-89
2022/05/30 10:35:08;;;;;;;1.50;1.40;;;18.40;72.60;;;;;;4996533;28;20202;-89
2022/05/30 10:38:09;;;;;;;1.23;1.10;;;17.80;68.90;;;;;;4998043;28;20436;-89
2022/05/30 10:40:46;;;;;;;1.50;1.40;;;17.20;74.40;;;;;;4992856;28;20452;-88
2022/05/30 10:43:16;;;;;;;2.10;1.10;;;17.50;65.60;;;;;;5001491;28;20477;-89
2022/05/30 10:46:02;;;;;;;2.40;1.20;;;17.20;63.80;;;;;;4998929;28;20458;-89
2022/05/30 10:48:54;;;;;;;1.20;1.10;;;17.20;62.20;;;;;;4991252;28;20443;-88
2022/05/30 10:51:28;;;;;;;1.27;0.93;;;17.40;63.40;;;;;;4985464;28;20578;-89
2022/05/30 10:54:06;;;;;;;1.70;1.60;;;17.60;66.40;;;;;;4993282;28;20489;-88
2022/05/30 10:56:41;;;;;;;1.20;1.10;;;17.80;70.00;;;;;;5003599;28;20526;-89
2022/05/30 10:59:37;;;;;;;1.40;1.17;;;18.10;70.60;;;;;;5006308;28;20455;-89
2022/05/30 11:02:18;;;;;;;1.30;1.20;;;18.70;68.50;;;;;;4998406;28;20494;-89
2022/05/30 11:05:00;;;;;;;0.77;0.77;;;19.00;62.60;;;;;;5001983;28;20439;-89
2022/05/30 11:07:42;;;;;;;1.60;1.40;;;19.60;60.50;;;;;;5018794;28;20436;-89
2022/05/30 11:10:38;;;;;;;1.97;1.70;;;19.70;68.70;;;;;;5000721;28;20455;-90
2022/05/30 11:13:30;;;;;;;1.23;1.13;;;19.30;67.80;;;;;;5003978;28;20507;-89
2022/05/30 11:16:14;;;;;;;3.10;1.53;;;19.00;63.50;;;;;;4991687;28;20428;-90
2022/05/30 11:19:24;;;;;;;1.53;1.40;;;19.40;68.70;;;;;;4999411;28;20444;-90
2022/05/30 11:22:14;;;;;;;2.93;1.20;;;19.10;69.50;;;;;;4984659;28;20976;-89
2022/05/30 11:24:40;;;;;;;1.43;1.10;;;18.60;64.20;;;;;;5002150;28;20519;-89
2022/05/30 11:27:17;;;;;;;1.27;1.23;;;18.60;64.10;;;;;;5002001;28;20992;-89
2022/05/30 11:30:03;;;;;;;1.20;1.20;;;18.50;65.70;;;;;;5007139;28;20798;-89
2022/05/30 11:32:53;;;;;;;1.27;1.00;;;18.30;65.00;;;;;;4999451;28;20586;-89
2022/05/30 11:35:36;;;;;;;1.50;1.00;;;18.10;65.20;;;;;;4994076;28;20444;-89
2022/05/30 11:38:44;;;;;;;1.73;1.30;;;18.10;66.70;;;;;;4984469;28;20482;-89
2022/05/30 11:41:41;;;;;;;1.10;1.07;;;18.60;65.00;;;;;;4979855;28;20722;-89
2022/05/30 11:44:18;;;;;;;2.07;1.27;;;18.30;61.10;;;;;;4981369;28;20510;-89
2022/05/30 11:46:59;;;;;;;1.43;1.10;;;18.50;69.10;;;;;;4991186;28;20481;-90
2022/05/30 11:49:30;;;;;;;2.27;1.30;;;19.20;67.90;;;;;;5002464;28;20542;-89
2022/05/30 11:52:23;;;;;;;3.00;1.23;;;20.30;60.70;;;;;;5000256;28;20459;-89
2022/05/30 11:55:14;;;;;;;1.20;1.10;;;21.30;60.00;;;;;;5004213;28;20930;-88
2022/05/30 11:57:48;;;;;;;1.33;1.23;;;20.80;59.90;;;;;;4997134;28;20953;-89
2022/05/30 12:00:30;;;;;;;2.57;1.50;;;20.20;60.00;;;;;;4999883;28;20428;-90
2022/05/30 12:02:57;;;;;;;1.20;1.10;;;19.60;60.00;;;;;;4990410;28;20535;-90
2022/05/30 12:05:55;;;;;;;1.47;1.20;;;20.00;60.70;;;;;;4985314;28;22093;-88
2022/05/30 12:08:29;;;;;;;2.00;1.50;;;20.50;65.00;;;;;;5017208;28;20509;-90
2022/05/30 12:11:11;;;;;;;1.30;1.20;;;20.40;59.40;;;;;;5005925;28;20499;-90
2022/05/30 12:14:14;;;;;;;1.77;1.20;;;20.50;65.60;;;;;;5000332;28;20503;-89
2022/05/30 12:16:58;;;;;;;1.70;1.60;;;19.70;60.90;;;;;;4990519;28;21104;-88
2022/05/30 12:25:35;;;;;;;2.30;1.10;;;19.00;54.00;;;;;;4994203;28;20959;-89
2022/05/30 12:28:06;;;;;;;1.33;1.20;;;19.70;52.40;;;;;;5002904;28;20448;-87
2022/05/30 12:30:35;;;;;;;1.87;1.33;;;20.20;52.30;;;;;;5010148;28;20436;-88
2022/05/30 12:33:32;;;;;;;1.20;1.10;;;20.00;53.10;;;;;;5004068;28;20485;-88
2022/05/30 12:36:09;;;;;;;1.67;1.30;;;20.20;56.00;;;;;;4989594;28;20474;-88
2022/05/30 12:39:07;;;;;;;1.77;1.20;;;20.90;59.10;;;;;;4987935;28;21487;-87
2022/05/30 12:41:58;;;;;;;1.50;1.40;;;21.10;57.30;;;;;;4971259;28;20635;-88
2022/05/30 12:44:45;;;;;;;3.43;1.40;;;20.90;56.20;;;;;;4981551;28;20782;-88
2022/05/30 12:47:25;;;;;;;3.33;1.23;;;21.30;57.00;;;;;;4971985;28;20448;-88
2022/05/30 12:49:50;;;;;;;1.60;1.40;;;21.90;53.20;;;;;;4983145;28;20462;-88
2022/05/30 12:52:21;;;;;;;1.30;1.20;;;22.50;57.30;;;;;;4988234;28;20468;-87
2022/05/30 12:54:58;;;;;;;1.20;1.07;;;22.80;53.10;;;;;;5012477;28;20169;-88
2022/05/30 12:57:43;;;;;;;1.00;1.00;;;22.10;50.30;;;;;;4998997;28;20443;-88
2022/05/30 13:00:20;;;;;;;1.07;0.97;;;21.50;53.60;;;;;;4996525;28;21210;-88
2022/05/30 13:02:49;;;;;;;1.17;1.13;;;21.60;50.00;;;;;;4977604;28;20906;-87
2022/05/30 13:05:40;;;;;;;2.43;1.67;;;21.10;51.60;;;;;;5004320;28;20487;-91
2022/05/30 13:08:45;;;;;;;1.20;1.10;;;21.00;51.20;;;;;;4997272;28;20997;-92
2022/05/30 13:11:19;;;;;;;2.83;1.57;;;21.50;54.60;;;;;;4974496;28;20431;-91
2022/05/30 13:14:08;;;;;;;8.33;2.87;;;21.90;54.30;;;;;;4999366;28;21051;-92
2022/05/30 13:16:48;;;;;;;1.43;1.20;;;22.40;54.80;;;;;;4990999;28;20451;-94
2022/05/30 13:19:16;;;;;;;1.43;1.20;;;21.60;47.80;;;;;;4987181;28;20448;-93
2022/05/30 13:21:45;;;;;;;2.53;1.43;;;20.10;49.10;;;;;;4986224;28;20448;-92
2022/05/30 13:24:34;;;;;;;1.40;1.20;;;20.30;52.10;;;;;;4985972;28;20447;-93
2022/05/30 13:27:01;;;;;;;2.20;1.50;;;21.10;53.20;;;;;;4986329;28;20443;-92
2022/05/30 13:30:08;;;;;;;2.00;1.60;;;20.90;48.80;;;;;;4993017;28;20440;-91
2022/05/30 13:32:39;;;;;;;1.43;1.30;;;20.80;53.10;;;;;;4980581;28;20497;-93
2022/05/30 13:35:12;;;;;;;1.53;1.27;;;21.40;46.80;;;;;;5001861;28;20459;-92
2022/05/30 13:37:54;;;;;;;1.57;1.47;;;20.80;47.90;;;;;;4989779;28;20450;-93
2022/05/30 13:40:25;;;;;;;1.40;1.10;;;21.30;48.10;;;;;;5007142;28;20516;-92
2022/05/30 13:43:05;;;;;;;1.30;1.20;;;20.80;46.10;;;;;;4984850;28;20451;-91
2022/05/30 13:45:36;;;;;;;2.73;1.20;;;20.70;47.60;;;;;;5002444;28;20444;-92
2022/05/30 13:48:24;;;;;;;1.80;1.00;;;20.90;47.30;;;;;;4988056;28;20502;-91
2022/05/30 13:50:57;;;;;;;1.40;1.30;;;21.60;46.80;;;;;;4999378;28;20525;-90
2022/05/30 13:53:26;;;;;;;1.67;1.40;;;22.20;44.90;;;;;;4993736;28;20480;-90
2022/05/30 13:56:00;;;;;;;1.63;1.53;;;22.10;43.90;;;;;;4993597;28;20457;-91
2022/05/30 13:58:30;;;;;;;1.67;1.40;;;22.80;42.10;;;;;;4987950;28;20452;-89
2022/05/30 14:01:05;;;;;;;2.00;1.13;;;23.50;45.20;;;;;;4988034;28;20434;-90
2022/05/30 14:03:32;;;;;;;3.93;1.77;;;26.60;40.90;;;;;;4989640;28;20583;-92
2022/05/30 14:05:57;;;;;;;1.40;1.30;;;29.70;36.10;;;;;;4987075;28;20502;-89
2022/05/30 14:08:34;;;;;;;3.37;1.10;;;27.10;35.20;;;;;;4995916;28;20472;-89
2022/05/30 14:11:03;;;;;;;2.10;1.27;;;28.70;39.20;;;;;;4995108;28;20682;-90
2022/05/30 14:13:43;;;;;;;2.20;1.40;;;30.30;38.10;;;;;;4980532;28;20484;-90
2022/05/30 14:16:30;;;;;;;1.40;1.30;;;33.10;34.60;;;;;;4992281;28;20459;-91
2022/05/30 14:19:01;;;;;;;1.10;1.00;;;33.90;32.10;;;;;;4980598;28;20643;-89
2022/05/30 14:21:32;;;;;;;1.83;1.50;;;35.30;30.00;;;;;;5009102;28;20449;-90
2022/05/30 14:24:32;;;;;;;2.83;1.10;;;33.90;29.90;;;;;;4980285;28;20565;-92
2022/05/30 14:26:58;;;;;;;1.77;1.50;;;33.90;29.80;;;;;;4988829;28;20529;-89
2022/05/30 14:29:24;;;;;;;2.03;1.40;;;30.60;28.60;;;;;;4981565;28;21166;-90
2022/05/30 14:32:17;;;;;;;2.00;1.80;;;29.50;32.30;;;;;;4985864;28;20436;-88
2022/05/30 14:34:54;;;;;;;1.60;1.50;;;29.60;30.70;;;;;;4988031;28;20266;-90
2022/05/30 14:37:26;;;;;;;2.03;1.40;;;30.60;31.80;;;;;;4995676;28;20441;-90
2022/05/30 14:39:54;;;;;;;1.13;1.10;;;32.90;30.40;;;;;;4979900;28;20531;-90
2022/05/30 14:42:31;;;;;;;1.63;1.40;;;33.50;27.70;;;;;;4986106;28;20442;-91
2022/05/30 14:45:25;;;;;;;;;;;;;;;;;;;;;
2022/05/30 14:47:58;;;;;;;1.47;1.13;;;35.00;26.40;;;;;;4979613;28;24833;-90
2022/05/30 14:50:50;;;;;;;1.40;1.03;;;33.10;28.40;;;;;;4988022;28;20455;-90
2022/05/30 14:53:19;;;;;;;1.70;1.27;;;33.00;29.00;;;;;;4983332;28;20559;-88
2022/05/30 14:55:56;;;;;;;1.37;1.27;;;28.00;29.80;;;;;;4985119;28;20440;-89
2022/05/30 14:58:38;;;;;;;3.13;1.80;;;27.80;31.10;;;;;;4992406;28;20447;-88
2022/05/30 15:01:10;;;;;;;2.50;1.60;;;27.20;31.90;;;;;;4997596;28;20444;-89
2022/05/30 15:06:25;;;;;;;1.73;1.20;;;30.80;30.10;;;;;;4989988;28;20457;-90
2022/05/30 15:08:53;;;;;;;1.37;1.20;;;30.50;29.20;;;;;;5000591;28;20501;-90
2022/05/30 15:11:24;;;;;;;2.70;1.20;;;30.10;30.10;;;;;;4994735;28;20814;-89
2022/05/30 15:13:52;;;;;;;1.50;1.40;;;30.30;29.70;;;;;;4988202;28;20476;-90
2022/05/30 15:16:20;;;;;;;1.60;1.50;;;28.10;29.30;;;;;;4984069;28;20440;-90
2022/05/30 15:18:46;;;;;;;2.93;1.57;;;27.90;31.20;;;;;;4982664;28;20452;-91
2022/05/30 15:21:23;;;;;;;1.53;1.40;;;26.40;30.60;;;;;;4992721;28;20495;-90